Time;durP1;ratioP1;P1;durP2;ratioP2;P2;SDS_P1;SDS_P2;PMS_P1;PMS_P2;Temp;Humidity;BMP_temperature;BMP_pressure;BME280_temperature;BME280_humidity;BME280_pressure;Samples;Min_cycle;Max_cycle;Signal;HPM_P1;HPM_P2
2023/04/19 05:28:53;;;;;;;4.78;3.42;;;6.10;99.90;;;;;;5021300;28;20056;-81
2023/04/19 05:31:22;;;;;;;7.03;4.15;;;7.50;99.90;;;;;;5004307;28;20099;-85
2023/04/19 05:33:48;;;;;;;8.35;4.50;;;8.20;99.90;;;;;;4990405;28;20445;-83
2023/04/19 05:36:22;;;;;;;8.03;3.86;;;6.10;99.90;;;;;;4599400;28;10002748;-83
2023/04/19 05:38:47;;;;;;;4.75;3.20;;;5.90;99.90;;;;;;4999314;28;20385;-83
2023/04/19 05:41:14;;;;;;;7.65;3.95;;;8.40;99.90;;;;;;4985099;28;20525;-83
2023/04/19 05:43:39;;;;;;;6.20;4.05;;;6.20;99.90;;;;;;5015331;28;20115;-83
2023/04/19 05:46:05;;;;;;;6.80;3.42;;;8.30;99.90;;;;;;5025363;28;20050;-83
2023/04/19 05:48:31;;;;;;;4.22;3.13;;;6.20;99.90;;;;;;4987497;28;20103;-85
2023/04/19 05:50:58;;;;;;;8.85;3.78;;;6.50;99.90;;;;;;4988072;28;20088;-86
2023/04/19 05:53:24;;;;;;;6.18;3.20;;;8.70;99.90;;;;;;4995865;28;20156;-84
2023/04/19 05:55:50;;;;;;;7.78;3.85;;;7.90;99.90;;;;;;5017391;28;20125;-85
2023/04/19 05:58:17;;;;;;;4.35;3.83;;;6.20;99.90;;;;;;5000880;28;20054;-75
2023/04/19 06:00:42;;;;;;;5.05;3.80;;;8.40;99.90;;;;;;5017603;28;20050;-80
2023/04/19 06:03:08;;;;;;;4.65;3.25;;;9.30;99.90;;;;;;5018733;28;20057;-78
2023/04/19 06:05:34;;;;;;;4.25;2.67;;;6.30;99.90;;;;;;5015254;28;20456;-83
2023/04/19 06:07:59;;;;;;;6.00;3.30;;;9.30;99.90;;;;;;4984277;28;20119;-81
2023/04/19 06:10:25;;;;;;;4.75;3.25;;;8.00;99.90;;;;;;5025316;28;20080;-81
2023/04/19 06:12:51;;;;;;;5.13;3.13;;;6.40;99.90;;;;;;4997854;28;20049;-83
2023/04/19 06:15:17;;;;;;;4.03;2.92;;;;;;;;;;5017174;28;20071;-80
2023/04/19 06:17:42;;;;;;;4.85;2.75;;;6.60;99.90;;;;;;5019556;28;20421;-82
2023/04/19 06:20:09;;;;;;;7.40;3.22;;;4.70;99.90;;;;;;5019938;28;20055;-84
2023/04/19 06:22:35;;;;;;;5.75;3.08;;;;;;;;;;5025063;28;20187;-79
2023/04/19 06:25:02;;;;;;;3.83;2.75;;;6.70;99.90;;;;;;5018189;28;20045;-78
2023/04/19 06:27:28;;;;;;;6.03;3.05;;;6.70;99.90;;;;;;5022042;28;20052;-78
2023/04/19 06:29:54;;;;;;;4.43;2.75;;;7.90;99.90;;;;;;5023665;28;20045;-81
2023/04/19 06:32:19;;;;;;;5.68;2.35;;;8.90;99.90;;;;;;5019472;28;20401;-79
2023/04/19 06:34:45;;;;;;;5.20;2.65;;;8.30;99.90;;;;;;5020058;28;20038;-81
2023/04/19 06:37:11;;;;;;;4.97;2.08;;;6.60;99.90;;;;;;5026381;28;20041;-82
2023/04/19 06:39:37;;;;;;;3.65;2.65;;;6.90;99.90;;;;;;5003329;28;20135;-78
2023/04/19 06:42:02;;;;;;;3.63;2.60;;;6.90;99.90;;;;;;5025553;28;20071;-79
2023/04/19 06:44:28;;;;;;;4.13;2.53;;;7.10;99.90;;;;;;5020257;28;20148;-81
2023/04/19 06:46:54;;;;;;;6.32;2.40;;;6.30;99.90;;;;;;5024674;28;20053;-78
2023/04/19 06:49:21;;;;;;;4.85;2.10;;;9.40;99.90;;;;;;5022513;28;20042;-77
2023/04/19 06:51:48;;;;;;;3.75;2.50;;;;;;;;;;5002162;28;20083;-80
2023/04/19 06:54:14;;;;;;;3.78;2.58;;;7.10;99.90;;;;;;5019520;28;20121;-80
2023/04/19 06:56:44;;;;;;;4.20;2.33;;;8.50;99.90;;;;;;5018174;28;20560;-80
2023/04/19 06:59:12;;;;;;;5.90;2.85;;;7.20;99.90;;;;;;5018835;28;20053;-76
2023/04/19 07:01:39;;;;;;;5.97;2.63;;;6.30;99.90;;;;;;5018446;28;20493;-80
2023/04/19 07:04:05;;;;;;;4.10;2.63;;;9.20;99.90;;;;;;5015928;28;20053;-77
2023/04/19 07:06:31;;;;;;;4.35;2.17;;;9.40;99.90;;;;;;5001815;28;20057;-81
2023/04/19 07:08:56;;;;;;;4.32;2.55;;;9.00;99.90;;;;;;5025087;28;20049;-78
2023/04/19 07:11:22;;;;;;;2.60;2.15;;;7.40;99.90;;;;;;5032933;28;20037;-83
2023/04/19 07:13:49;;;;;;;4.90;2.15;;;7.40;99.90;;;;;;5003512;28;20577;-83
2023/04/19 07:16:15;;;;;;;3.78;2.03;;;7.30;99.90;;;;;;5020602;28;20056;-82
2023/04/19 07:18:41;;;;;;;2.70;2.25;;;8.30;99.90;;;;;;5023421;28;20125;-84
2023/04/19 07:21:06;;;;;;;3.13;2.30;;;7.60;99.90;;;;;;5021775;28;20058;-81
2023/04/19 07:23:32;;;;;;;4.85;2.13;;;10.20;99.90;;;;;;5022876;28;20049;-81
2023/04/19 07:25:58;;;;;;;2.88;2.15;;;7.80;99.90;;;;;;5022023;28;20083;-80
2023/04/19 07:28:23;;;;;;;2.38;1.98;;;9.70;99.90;;;;;;5021089;28;20045;-84
2023/04/19 07:30:49;;;;;;;5.53;1.83;;;7.90;99.90;;;;;;5005754;28;20096;-82
2023/04/19 07:33:15;;;;;;;21.17;2.30;;;7.90;99.90;;;;;;5006677;28;20050;-87
2023/04/19 07:35:41;;;;;;;1.73;1.52;;;8.00;99.90;;;;;;5020647;28;20412;-87
2023/04/19 07:38:07;;;;;;;4.45;1.55;;;8.00;99.90;;;;;;5001126;28;20497;-87
2023/04/19 07:40:32;;;;;;;2.80;1.90;;;9.80;99.90;;;;;;5019954;28;20057;-87
2023/04/19 07:42:58;;;;;;;3.53;1.90;;;8.00;99.90;;;;;;5021230;28;20048;-87
2023/04/19 07:45:23;;;;;;;3.00;1.50;;;8.20;99.90;;;;;;5016490;28;20085;-87
2023/04/19 07:47:49;;;;;;;9.63;2.22;;;10.60;99.90;;;;;;5003927;28;20068;-87
2023/04/19 07:50:15;;;;;;;4.32;1.48;;;8.30;99.90;;;;;;5018777;28;20049;-89
2023/04/19 07:52:40;;;;;;;3.60;1.67;;;9.80;99.90;;;;;;5000372;28;20050;-88
2023/04/19 07:55:06;;;;;;;1.48;1.38;;;9.00;99.90;;;;;;5019566;28;20498;-89
2023/04/19 07:57:34;;;;;;;4.68;1.70;;;8.60;99.90;;;;;;5004163;28;20049;-85
2023/04/19 08:00:00;;;;;;;3.75;2.28;;;8.00;99.90;;;;;;5002768;28;20489;-90
2023/04/19 08:02:26;;;;;;;1.73;1.63;;;8.30;99.90;;;;;;5017731;28;20116;-85
2023/04/19 08:04:52;;;;;;;6.15;1.70;;;8.40;99.90;;;;;;5000706;28;20137;-89
2023/04/19 08:07:18;;;;;;;2.97;1.65;;;11.00;99.90;;;;;;5022147;28;20116;-89
2023/04/19 08:09:44;;;;;;;2.30;1.50;;;8.50;99.90;;;;;;5007580;28;20057;-86
2023/04/19 08:12:10;;;;;;;4.13;1.60;;;;;;;;;;4998721;28;20057;-87
2023/04/19 08:14:38;;;;;;;3.80;1.83;;;8.70;99.90;;;;;;5007680;28;20068;-90
2023/04/19 08:17:04;;;;;;;2.17;1.70;;;11.40;99.90;;;;;;5002907;28;20053;-90
2023/04/19 08:19:29;;;;;;;2.45;1.63;;;11.30;99.90;;;;;;5015649;28;20050;-88
2023/04/19 08:21:56;;;;;;;1.58;1.40;;;9.00;99.90;;;;;;5024637;28;20558;-89
2023/04/19 08:24:22;;;;;;;2.22;1.30;;;9.00;99.90;;;;;;4983048;28;20058;-87
2023/04/19 08:26:52;;;;;;;1.65;1.20;;;9.00;99.90;;;;;;5000744;28;20054;-85
2023/04/19 08:29:19;;;;;;;4.43;1.20;;;11.50;99.90;;;;;;5000601;28;20141;-87
2023/04/19 08:31:46;;;;;;;4.40;1.50;;;;;;;;;;5000031;28;20089;-86
2023/04/19 08:34:11;;;;;;;1.70;1.17;;;9.20;99.90;;;;;;5020861;28;20096;-85
2023/04/19 08:36:37;;;;;;;2.92;1.63;;;11.40;99.90;;;;;;5024245;28;20053;-85
2023/04/19 08:39:03;;;;;;;3.00;1.50;;;10.80;99.90;;;;;;5023737;28;20394;-87
2023/04/19 08:41:30;;;;;;;1.58;1.35;;;11.60;99.90;;;;;;5030562;28;20558;-85
2023/04/19 08:43:57;;;;;;;5.90;1.55;;;10.60;99.90;;;;;;5032496;28;20132;-84
2023/04/19 08:46:23;;;;;;;2.95;1.58;;;11.40;99.90;;;;;;4987212;28;20057;-88
2023/04/19 08:48:50;;;;;;;1.63;1.25;;;11.90;99.90;;;;;;5027364;28;20079;-87
2023/04/19 08:51:17;;;;;;;1.38;1.27;;;9.40;99.90;;;;;;5022321;28;20338;-88
2023/04/19 08:53:43;;;;;;;3.03;1.13;;;10.80;99.90;;;;;;5026330;28;20575;-90
2023/04/19 08:56:10;;;;;;;2.17;1.17;;;9.60;99.90;;;;;;5022603;28;20054;-85
2023/04/19 08:58:36;;;;;;;1.60;0.98;;;10.50;99.90;;;;;;4988139;28;20512;-88
2023/04/19 09:01:04;;;;;;;1.30;1.02;;;9.60;99.90;;;;;;5027064;28;20050;-89
2023/04/19 09:03:31;;;;;;;3.13;1.10;;;9.70;99.90;;;;;;5020512;28;20048;-84
2023/04/19 09:05:57;;;;;;;2.30;1.55;;;9.50;99.90;;;;;;5002942;28;20046;-85
2023/04/19 09:08:26;;;;;;;1.38;1.10;;;12.00;99.90;;;;;;4990613;28;20052;-89
2023/04/19 09:10:57;;;;;;;2.38;1.30;;;11.70;99.90;;;;;;5026720;28;20452;-87
2023/04/19 09:13:24;;;;;;;0.88;0.80;;;10.00;99.90;;;;;;5020938;28;20402;-90
2023/04/19 09:15:50;;;;;;;1.40;1.05;;;12.20;99.90;;;;;;5018152;28;20085;-85
2023/04/19 09:18:16;;;;;;;1.10;0.80;;;10.10;99.90;;;;;;5004334;28;20433;-87
2023/04/19 09:20:43;;;;;;;1.20;0.70;;;9.90;99.90;;;;;;5005621;28;20050;-87
2023/04/19 09:23:18;;;;;;;1.00;0.80;;;11.40;99.90;;;;;;5022367;28;20050;-86
2023/04/19 09:25:56;;;;;;;1.85;0.63;;;10.40;99.90;;;;;;5022841;28;20045;-85
2023/04/19 09:28:22;;;;;;;1.23;0.85;;;10.50;99.90;;;;;;5003067;28;20057;-88
2023/04/19 09:30:49;;;;;;;1.63;0.80;;;10.40;99.90;;;;;;5019972;28;20058;-86
2023/04/19 09:33:36;;;;;;;2.83;1.55;;;11.30;99.90;;;;;;5003470;28;20100;-85
2023/04/19 09:36:03;;;;;;;6.78;1.10;;;12.90;99.90;;;;;;4989642;28;20061;-89
2023/04/19 09:38:28;;;;;;;2.80;0.63;;;10.90;99.90;;;;;;5001964;28;20100;-88
2023/04/19 09:41:07;;;;;;;2.60;0.63;;;12.80;99.90;;;;;;4980994;28;20052;-85
2023/04/19 09:43:33;;;;;;;1.88;1.00;;;11.00;99.90;;;;;;4985797;28;20497;-86
2023/04/19 09:45:59;;;;;;;1.27;1.10;;;9.00;99.30;;;;;;5020459;28;20042;-89
2023/04/19 09:48:25;;;;;;;1.02;0.80;;;12.50;99.70;;;;;;5022723;28;20050;-88
2023/04/19 09:51:00;;;;;;;2.00;0.85;;;13.60;99.90;;;;;;5008393;28;20119;-84
2023/04/19 09:53:26;;;;;;;;;;;9.70;98.80;;;;;;4993375;28;20053;-90
2023/04/19 09:55:52;;;;;;;3.50;0.90;;;13.40;99.60;;;;;;5002061;28;20381;-87
2023/04/19 09:58:19;;;;;;;4.13;0.98;;;13.70;99.90;;;;;;5005570;28;20061;-88
2023/04/19 10:00:46;;;;;;;1.35;1.00;;;14.00;99.90;;;;;;5024055;28;20096;-89
2023/04/19 10:03:14;;;;;;;3.03;0.75;;;11.30;98.90;;;;;;5022847;28;20468;-88
2023/04/19 10:05:41;;;;;;;2.28;0.50;;;11.40;96.90;;;;;;5018673;28;20084;-90
2023/04/19 10:08:08;;;;;;;3.47;0.57;;;11.40;97.30;;;;;;5019848;28;20579;-90
2023/04/19 10:10:35;;;;;;;3.28;0.77;;;12.20;96.80;;;;;;5002677;28;20054;-86
2023/04/19 10:13:07;;;;;;;1.30;0.77;;;11.50;96.30;;;;;;5021797;28;20497;-86
2023/04/19 10:15:35;;;;;;;2.47;0.70;;;13.60;96.40;;;;;;5027518;28;20421;-88
2023/04/19 10:18:05;;;;;;;3.42;0.90;;;14.10;97.00;;;;;;5006065;28;20073;-88
2023/04/19 10:20:41;;;;;;;2.28;0.40;;;13.90;96.80;;;;;;5020311;28;20088;-88
2023/04/19 10:23:10;;;;;;;2.60;0.90;;;13.60;97.20;;;;;;5005621;28;20053;-88
2023/04/19 10:25:37;;;;;;;4.70;1.00;;;14.30;97.50;;;;;;5000741;28;20046;-86
2023/04/19 10:28:03;;;;;;;1.45;0.70;;;11.90;96.80;;;;;;4984819;28;20053;-88
2023/04/19 10:30:29;;;;;;;2.75;1.00;;;12.00;96.70;;;;;;5002725;28;20050;-90
2023/04/19 10:32:57;;;;;;;3.03;0.50;;;12.00;96.40;;;;;;4985357;28;20783;-84
2023/04/19 10:35:37;;;;;;;2.60;0.80;;;12.10;96.30;;;;;;4986293;28;20093;-90
2023/04/19 10:38:18;;;;;;;5.13;0.55;;;12.10;96.60;;;;;;5022547;28;20081;-89
2023/04/19 10:40:53;;;;;;;2.35;0.50;;;12.20;95.70;;;;;;5001417;28;20057;-89
2023/04/19 10:43:20;;;;;;;1.27;0.60;;;12.30;96.00;;;;;;4987808;28;20050;-84
2023/04/19 10:45:52;;;;;;;1.00;0.50;;;12.30;95.80;;;;;;5025627;28;20408;-88
2023/04/19 10:48:29;;;;;;;0.40;0.38;;;12.40;95.20;;;;;;5003952;28;20081;-84
2023/04/19 10:51:14;;;;;;;1.38;0.47;;;13.50;94.40;;;;;;4980339;28;20046;-84
2023/04/19 10:53:48;;;;;;;2.88;0.43;;;12.50;93.90;;;;;;4986001;28;20042;-83
2023/04/19 10:56:18;;;;;;;0.60;0.57;;;14.10;94.20;;;;;;4996385;28;20050;-85
2023/04/19 10:59:06;;;;;;;1.45;0.75;;;12.70;93.80;;;;;;5021749;28;20061;-85
2023/04/19 11:01:39;;;;;;;6.35;0.63;;;13.40;94.00;;;;;;4996098;28;20505;-85
2023/04/19 11:04:06;;;;;;;2.63;0.50;;;15.00;94.80;;;;;;4987587;28;20049;-84
2023/04/19 11:06:32;;;;;;;5.75;0.60;;;13.10;94.30;;;;;;5004465;28;20084;-85
2023/04/19 11:09:01;;;;;;;1.58;0.40;;;13.10;93.80;;;;;;5002295;28;20088;-86
2023/04/19 11:11:27;;;;;;;3.10;0.75;;;13.20;93.70;;;;;;4989751;28;20056;-83
2023/04/19 11:14:14;;;;;;;1.20;0.60;;;12.20;93.60;;;;;;4984032;28;20045;-84
2023/04/19 11:16:40;;;;;;;1.35;0.70;;;13.40;93.40;;;;;;4987682;28;20049;-83
2023/04/19 11:19:06;;;;;;;2.25;0.93;;;13.50;94.10;;;;;;4982141;28;20054;-84
2023/04/19 11:21:32;;;;;;;0.80;0.80;;;13.60;94.00;;;;;;4986328;28;20060;-86
2023/04/19 11:24:11;;;;;;;1.42;0.55;;;13.70;94.40;;;;;;5007259;28;20523;-86
2023/04/19 11:26:42;;;;;;;2.03;0.60;;;13.90;93.60;;;;;;5004289;28;20049;-85
2023/04/19 11:29:08;;;;;;;3.42;0.50;;;15.90;93.50;;;;;;5001385;28;20065;-85
2023/04/19 11:31:35;;;;;;;2.45;0.70;;;14.30;93.60;;;;;;5010123;28;20412;-83
2023/04/19 11:34:02;;;;;;;5.72;1.00;;;14.30;92.10;;;;;;4986067;28;20050;-85
2023/04/19 11:36:28;;;;;;;4.18;0.90;;;15.40;92.80;;;;;;5021187;28;20420;-87
2023/04/19 11:38:54;;;;;;;0.50;0.40;;;14.80;92.70;;;;;;5014775;28;20058;-86
2023/04/19 11:41:20;;;;;;;4.32;0.60;;;;;;;;;;5008559;28;20053;-87
2023/04/19 11:43:47;;;;;;;3.13;0.60;;;14.40;90.30;;;;;;4988845;28;20048;-85
2023/04/19 11:46:14;;;;;;;1.05;0.50;;;16.00;91.40;;;;;;4998870;28;20827;-89
2023/04/19 11:48:53;;;;;;;2.78;0.70;;;15.90;91.50;;;;;;5024817;28;20788;-86
2023/04/19 11:51:19;;;;;;;1.13;0.65;;;14.60;90.60;;;;;;5006768;28;20112;-84
2023/04/19 11:53:46;;;;;;;2.08;0.40;;;14.90;91.00;;;;;;4984702;28;20046;-86
2023/04/19 11:56:14;;;;;;;1.15;0.57;;;17.30;91.00;;;;;;5018943;28;20046;-81
2023/04/19 11:58:49;;;;;;;0.85;0.80;;;16.00;90.60;;;;;;5005032;28;20466;-87
2023/04/19 12:01:18;;;;;;;2.83;0.65;;;15.00;89.20;;;;;;5025722;28;20128;-84
2023/04/19 12:03:49;;;;;;;1.45;0.68;;;15.70;89.80;;;;;;5024953;28;20689;-80
2023/04/19 12:06:22;;;;;;;1.17;0.98;;;15.10;89.40;;;;;;5006130;28;20448;-84
2023/04/19 12:08:51;;;;;;;2.80;0.90;;;13.40;88.30;;;;;;5023323;28;20068;-84
2023/04/19 12:11:18;;;;;;;1.73;1.00;;;17.20;90.10;;;;;;5009861;28;20164;-85
2023/04/19 12:13:44;;;;;;;3.25;0.70;;;15.30;88.10;;;;;;5003073;28;20129;-84
2023/04/19 12:16:11;;;;;;;3.03;1.23;;;15.30;87.60;;;;;;5030728;28;20107;-84
2023/04/19 12:18:47;;;;;;;1.85;1.08;;;15.40;87.00;;;;;;5011152;28;20097;-89
2023/04/19 12:21:31;;;;;;;1.75;0.70;;;14.60;87.40;;;;;;4997646;28;20097;-87
2023/04/19 12:23:59;;;;;;;1.13;1.00;;;15.50;87.40;;;;;;5029651;28;20077;-85
2023/04/19 12:26:29;;;;;;;2.33;1.15;;;17.30;88.50;;;;;;5032229;28;20119;-83
2023/04/19 12:28:56;;;;;;;2.08;1.13;;;16.00;86.80;;;;;;5025175;28;20050;-81
2023/04/19 12:31:22;;;;;;;1.40;1.30;;;15.50;86.00;;;;;;5005401;28;20117;-81
2023/04/19 12:33:48;;;;;;;2.95;1.48;;;17.50;88.10;;;;;;5031233;28;20104;-86
2023/04/19 12:36:14;;;;;;;1.50;1.17;;;16.70;87.20;;;;;;5033103;28;20057;-84
2023/04/19 12:38:40;;;;;;;3.42;1.45;;;15.70;88.60;;;;;;5009811;28;20065;-92
2023/04/19 12:41:06;;;;;;;1.55;1.42;;;15.90;90.10;;;;;;5025595;28;20971;-83
2023/04/19 12:43:31;;;;;;;1.52;1.10;;;15.90;89.30;;;;;;5007462;28;20053;-83
2023/04/19 12:45:58;;;;;;;1.95;1.38;;;15.90;88.30;;;;;;5024903;28;20060;-89
2023/04/19 12:48:24;;;;;;;3.88;1.85;;;16.10;87.60;;;;;;5024772;28;20497;-85
2023/04/19 12:50:50;;;;;;;5.93;1.85;;;16.20;88.00;;;;;;5008100;28;20089;-84
2023/04/19 12:53:16;;;;;;;4.50;1.90;;;16.50;88.00;;;;;;5021966;28;20462;-86
2023/04/19 12:55:46;;;;;;;3.30;1.83;;;17.30;88.10;;;;;;5007238;28;20136;-83
2023/04/19 12:58:12;;;;;;;2.58;1.52;;;15.70;87.20;;;;;;5028489;28;20670;-82
2023/04/19 13:00:38;;;;;;;2.58;1.92;;;16.40;86.80;;;;;;4999719;28;20073;-85
2023/04/19 13:03:04;;;;;;;2.65;1.58;;;16.50;87.50;;;;;;5023426;28;20077;-81
2023/04/19 13:05:30;;;;;;;2.40;1.67;;;18.00;87.70;;;;;;5002225;28;20541;-86
2023/04/19 13:07:56;;;;;;;6.25;5.50;;;16.60;87.00;;;;;;5019543;28;20473;-81
2023/04/19 13:10:21;;;;;;;4.35;2.92;;;18.00;88.60;;;;;;5023491;28;20144;-80
2023/04/19 13:12:47;;;;;;;2.40;1.45;;;16.60;88.10;;;;;;5021922;28;20087;-83
2023/04/19 13:15:13;;;;;;;3.70;1.40;;;16.70;87.10;;;;;;5002092;28;20049;-85
2023/04/19 13:17:38;;;;;;;4.68;2.50;;;16.70;86.50;;;;;;5022488;28;20053;-83
2023/04/19 13:20:05;;;;;;;7.38;2.55;;;16.90;86.90;;;;;;5004093;28;20093;-82
2023/04/19 13:22:31;;;;;;;3.08;2.08;;;16.70;88.50;;;;;;4992432;28;20452;-87
2023/04/19 13:24:57;;;;;;;6.78;2.78;;;18.70;90.10;;;;;;5003199;28;20062;-85
2023/04/19 13:27:23;;;;;;;4.50;2.33;;;17.80;90.10;;;;;;5021526;28;20060;-84
2023/04/19 13:29:50;;;;;;;3.88;2.25;;;16.90;89.10;;;;;;5003347;28;20056;-85
2023/04/19 13:32:16;;;;;;;4.05;2.20;;;16.90;88.30;;;;;;4980831;28;20057;-83
2023/04/19 13:34:41;;;;;;;6.70;2.42;;;16.90;87.90;;;;;;5003819;28;20096;-85
2023/04/19 13:37:07;;;;;;;5.28;2.50;;;16.70;88.30;;;;;;4989170;28;20057;-82
2023/04/19 13:39:33;;;;;;;6.55;2.55;;;16.70;88.40;;;;;;5006334;28;20052;-83
2023/04/19 13:42:00;;;;;;;7.45;2.30;;;16.70;89.50;;;;;;5002248;28;20525;-85
2023/04/19 13:44:27;;;;;;;3.58;3.28;;;16.80;89.70;;;;;;4985458;28;20079;-87
2023/04/19 13:46:52;;;;;;;6.15;4.00;;;18.90;90.00;;;;;;5020911;28;20421;-86
2023/04/19 13:49:18;;;;;;;3.08;2.45;;;16.70;89.00;;;;;;5008300;28;20053;-86
2023/04/19 13:51:45;;;;;;;3.65;2.80;;;16.20;88.50;;;;;;4984947;28;20089;-83
2023/04/19 13:54:16;;;;;;;5.65;2.45;;;16.60;88.70;;;;;;4990730;28;20042;-82
2023/04/19 13:56:42;;;;;;;7.05;3.30;;;16.60;89.70;;;;;;4989383;28;20088;-84
2023/04/19 13:59:07;;;;;;;3.85;2.78;;;16.50;88.80;;;;;;4989106;28;20085;-85
2023/04/19 14:01:34;;;;;;;23.20;5.78;;;16.40;88.50;;;;;;4991231;28;20518;-84
2023/04/19 14:04:00;;;;;;;15.80;5.03;;;16.40;88.80;;;;;;4993354;28;20038;-82
2023/04/19 14:06:27;;;;;;;7.03;3.22;;;16.40;89.20;;;;;;5023620;28;20050;-84
2023/04/19 14:08:53;;;;;;;7.05;2.60;;;16.30;89.50;;;;;;4988433;28;20046;-81
2023/04/19 14:11:19;;;;;;;6.85;2.78;;;18.00;90.10;;;;;;4988931;28;20061;-80
2023/04/19 14:13:47;;;;;;;5.75;2.65;;;16.50;89.90;;;;;;4987280;28;20052;-80
2023/04/19 14:16:12;;;;;;;2.72;2.50;;;16.40;89.80;;;;;;5007477;28;20054;-86
2023/04/19 14:18:38;;;;;;;4.88;2.53;;;16.50;90.00;;;;;;5000641;28;20378;-87
2023/04/19 14:21:04;;;;;;;5.63;2.80;;;16.60;90.00;;;;;;4990889;28;20072;-86
2023/04/19 14:23:30;;;;;;;6.32;2.80;;;16.60;89.20;;;;;;4987239;28;20138;-85
2023/04/19 14:25:55;;;;;;;4.68;3.05;;;16.60;89.40;;;;;;4999998;28;20056;-81
2023/04/19 14:28:21;;;;;;;4.22;2.72;;;16.50;89.00;;;;;;5002785;28;20150;-79
2023/04/19 14:30:47;;;;;;;4.68;2.97;;;16.50;89.10;;;;;;5021186;28;20445;-84
2023/04/19 14:33:13;;;;;;;5.20;3.17;;;16.40;89.90;;;;;;4988418;28;20418;-78
2023/04/19 14:35:40;;;;;;;4.85;2.90;;;16.50;90.00;;;;;;4983421;28;20064;-81
2023/04/19 14:38:05;;;;;;;3.80;2.90;;;16.80;89.70;;;;;;5001049;28;20089;-83
2023/04/19 14:40:32;;;;;;;3.67;2.92;;;16.50;89.40;;;;;;4987805;28;20105;-84
2023/04/19 14:43:02;;;;;;;2.65;2.45;;;16.40;88.60;;;;;;5001100;28;20539;-84
2023/04/19 14:45:28;;;;;;;4.53;2.35;;;16.30;89.30;;;;;;4997441;28;20100;-82
2023/04/19 14:47:53;;;;;;;10.68;2.53;;;16.20;89.90;;;;;;4986371;28;20046;-82
2023/04/19 14:50:20;;;;;;;5.00;2.92;;;16.10;90.20;;;;;;4987265;28;20397;-86
2023/04/19 14:52:47;;;;;;;3.88;2.70;;;16.00;90.00;;;;;;4985009;28;20062;-86
2023/04/19 14:55:14;;;;;;;5.93;2.83;;;15.90;88.90;;;;;;4991454;28;20042;-85
2023/04/19 14:57:40;;;;;;;3.65;2.63;;;14.30;88.20;;;;;;4999832;28;20086;-83
2023/04/19 15:00:06;;;;;;;4.55;2.33;;;15.70;89.50;;;;;;4984151;28;20046;-84
2023/04/19 15:02:33;;;;;;;9.77;2.63;;;15.50;89.50;;;;;;5025180;28;20057;-82
2023/04/19 15:04:58;;;;;;;3.28;2.15;;;15.60;90.30;;;;;;4992816;28;20053;-86
2023/04/19 15:07:25;;;;;;;3.88;1.98;;;15.60;90.40;;;;;;4987196;28;20104;-86
2023/04/19 15:09:53;;;;;;;3.78;2.28;;;15.40;89.00;;;;;;5003218;28;20113;-86
2023/04/19 15:12:19;;;;;;;3.28;1.80;;;15.40;89.90;;;;;;5022335;28;20053;-85
2023/04/19 15:14:45;;;;;;;3.88;1.83;;;17.30;90.80;;;;;;4998252;28;20436;-84
2023/04/19 15:17:14;;;;;;;4.88;2.15;;;16.90;90.40;;;;;;4985405;28;20056;-79
2023/04/19 15:19:39;;;;;;;5.70;2.00;;;15.30;88.80;;;;;;5003312;28;20049;-88
2023/04/19 15:22:05;;;;;;;2.90;1.65;;;15.20;89.40;;;;;;4984302;28;20057;-86
2023/04/19 15:24:34;;;;;;;3.50;1.90;;;16.00;88.90;;;;;;5019948;28;20088;-83
2023/04/19 15:27:00;;;;;;;2.15;1.73;;;15.00;88.40;;;;;;4995544;28;20046;-81
2023/04/19 15:29:27;;;;;;;7.68;2.15;;;15.00;89.30;;;;;;5021784;28;20485;-83
2023/04/19 15:31:53;;;;;;;6.70;2.00;;;15.00;89.90;;;;;;5010866;28;20041;-82
2023/04/19 15:34:19;;;;;;;2.42;1.27;;;13.80;89.20;;;;;;4992328;28;20128;-80
2023/04/19 15:36:44;;;;;;;2.53;1.48;;;14.90;89.70;;;;;;5023736;28;20148;-84
2023/04/19 15:39:10;;;;;;;2.15;1.42;;;14.80;88.80;;;;;;4987132;28;20045;-81
2023/04/19 15:41:36;;;;;;;6.10;1.75;;;16.60;90.00;;;;;;5018473;28;20045;-79
2023/04/19 15:44:02;;;;;;;2.53;1.58;;;14.80;89.20;;;;;;5026016;28;20046;-88
2023/04/19 15:46:27;;;;;;;3.17;1.30;;;14.80;88.60;;;;;;5010422;28;20084;-80
2023/04/19 15:48:53;;;;;;;3.67;1.42;;;14.80;87.70;;;;;;4988488;28;20049;-83
2023/04/19 15:51:19;;;;;;;1.73;1.20;;;15.40;88.30;;;;;;4985507;28;20069;-84
2023/04/19 15:53:44;;;;;;;3.88;1.20;;;16.60;88.40;;;;;;4992631;28;20046;-82
2023/04/19 15:56:10;;;;;;;4.78;1.45;;;14.70;87.70;;;;;;4986633;28;20049;-84
2023/04/19 15:58:36;;;;;;;3.95;1.67;;;14.70;87.90;;;;;;4987058;28;20096;-85
2023/04/19 16:01:02;;;;;;;7.00;2.17;;;14.70;87.50;;;;;;4988609;28;20482;-84
2023/04/19 16:03:27;;;;;;;2.53;1.90;;;14.60;87.40;;;;;;4987123;28;20056;-83
2023/04/19 16:05:55;;;;;;;3.13;1.80;;;14.80;86.90;;;;;;4988861;28;20056;-83
2023/04/19 16:08:20;;;;;;;5.82;1.02;;;14.50;87.00;;;;;;5006592;28;20133;-81
2023/04/19 16:10:47;;;;;;;1.55;1.08;;;14.50;87.50;;;;;;5024020;28;20132;-84
2023/04/19 16:13:13;;;;;;;2.53;1.10;;;14.50;88.00;;;;;;5004046;28;20156;-84
2023/04/19 16:15:43;;;;;;;3.05;1.40;;;14.90;89.10;;;;;;5020613;28;20104;-83
2023/04/19 16:18:09;;;;;;;1.40;1.30;;;15.60;89.10;;;;;;5004544;28;20054;-83
2023/04/19 16:20:36;;;;;;;4.28;1.70;;;14.60;88.30;;;;;;5030313;28;20129;-86
2023/04/19 16:23:02;;;;;;;3.95;1.48;;;14.90;88.40;;;;;;5023134;28;20045;-84
2023/04/19 16:25:29;;;;;;;13.15;1.65;;;14.50;88.30;;;;;;5005079;28;20053;-85
2023/04/19 16:27:54;;;;;;;4.55;1.50;;;14.20;88.50;;;;;;5006118;28;20079;-84
2023/04/19 16:30:22;;;;;;;2.90;1.65;;;15.00;89.90;;;;;;5002860;28;20046;-87
2023/04/19 16:32:48;;;;;;;3.55;1.50;;;14.30;90.10;;;;;;5020210;28;20033;-86
2023/04/19 16:35:14;;;;;;;3.50;1.70;;;14.40;90.30;;;;;;5022626;28;20234;-84
2023/04/19 16:37:40;;;;;;;7.65;1.85;;;14.40;90.50;;;;;;5006683;28;20049;-85
2023/04/19 16:40:08;;;;;;;2.47;1.40;;;12.70;90.20;;;;;;4986831;28;20050;-85
2023/04/19 16:42:36;;;;;;;4.55;1.70;;;14.40;90.60;;;;;;5020488;28;20046;-85
2023/04/19 16:45:02;;;;;;;5.18;1.98;;;15.70;91.10;;;;;;5020764;28;20098;-85
2023/04/19 16:47:29;;;;;;;3.25;1.92;;;14.40;91.10;;;;;;4989352;28;20417;-86
2023/04/19 16:49:56;;;;;;;6.20;1.70;;;15.00;91.40;;;;;;4990007;28;20049;-83
2023/04/19 16:52:22;;;;;;;4.00;1.70;;;14.30;91.30;;;;;;5003007;28;20067;-85
2023/04/19 16:54:47;;;;;;;2.88;1.40;;;14.40;91.80;;;;;;4986281;28;20049;-82
2023/04/19 16:57:13;;;;;;;4.35;2.00;;;15.40;92.00;;;;;;5020530;28;20187;-84
2023/04/19 16:59:39;;;;;;;2.58;1.40;;;14.30;91.50;;;;;;5001756;28;20477;-85
2023/04/19 17:02:06;;;;;;;2.67;1.38;;;14.20;91.20;;;;;;5020552;28;20520;-84
2023/04/19 17:04:31;;;;;;;5.20;1.77;;;14.20;91.20;;;;;;5025020;28;20038;-84
2023/04/19 17:06:57;;;;;;;3.38;1.52;;;14.10;91.50;;;;;;5019051;28;20100;-85
2023/04/19 17:09:23;;;;;;;3.20;1.25;;;14.50;91.50;;;;;;5022913;28;20050;-83
2023/04/19 17:11:48;;;;;;;3.60;1.60;;;14.10;91.40;;;;;;5004663;28;20061;-83
2023/04/19 17:14:14;;;;;;;3.38;1.13;;;14.90;91.80;;;;;;5029344;28;20053;-84
2023/04/19 17:16:40;;;;;;;2.13;1.48;;;14.00;91.90;;;;;;5008418;28;20081;-84
2023/04/19 17:19:06;;;;;;;3.13;1.05;;;14.00;91.80;;;;;;5002622;28;20481;-85
2023/04/19 17:21:31;;;;;;;2.95;1.42;;;13.80;91.70;;;;;;5022468;28;20088;-84
2023/04/19 17:23:57;;;;;;;4.97;1.52;;;13.80;92.10;;;;;;5005335;28;20664;-85
2023/04/19 17:26:24;;;;;;;4.80;1.50;;;13.80;92.00;;;;;;4986523;28;20493;-85
2023/04/19 17:28:52;;;;;;;2.28;1.48;;;13.80;91.70;;;;;;4986085;28;20081;-82
2023/04/19 17:31:21;;;;;;;3.40;1.73;;;13.70;91.20;;;;;;5005244;28;20058;-82
2023/04/19 17:33:47;;;;;;;1.88;1.23;;;13.80;91.00;;;;;;5006323;28;20048;-84
2023/04/19 17:36:36;;;;;;;4.22;1.70;;;13.50;91.00;;;;;;5004060;28;20064;-83
2023/04/19 17:39:01;;;;;;;3.85;2.13;;;13.40;91.20;;;;;;5001165;28;20042;-84
2023/04/19 17:41:27;;;;;;;7.18;2.30;;;13.30;91.10;;;;;;4988682;28;20087;-85
2023/04/19 17:43:55;;;;;;;11.05;7.57;;;13.20;91.80;;;;;;4988982;28;20044;-83
2023/04/19 17:46:27;;;;;;;3.00;2.35;;;13.20;91.50;;;;;;5002115;28;20081;-84
2023/04/19 17:48:57;;;;;;;4.00;2.55;;;13.10;91.10;;;;;;4975554;28;20046;-83
2023/04/19 17:51:24;;;;;;;6.55;4.07;;;12.90;91.10;;;;;;5003160;28;20096;-82
2023/04/19 17:53:57;;;;;;;5.67;3.63;;;12.80;90.50;;;;;;5002575;28;20085;-83
2023/04/19 17:56:24;;;;;;;6.07;2.50;;;12.70;90.00;;;;;;5002703;28;20501;-82
2023/04/19 17:58:51;;;;;;;3.35;2.45;;;11.00;88.10;;;;;;4651792;28;10000281;-85
2023/04/19 18:01:24;;;;;;;4.32;2.47;;;13.50;90.10;;;;;;4972089;28;20068;-85
2023/04/19 18:04:20;;;;;;;3.33;1.70;;;12.40;88.80;;;;;;5018281;28;20056;-84
2023/04/19 18:11:28;;;;;;;2.63;2.40;;;12.30;88.50;;;;;;4950224;28;20045;-86
2023/04/19 18:26:15;;;;;;;7.03;5.13;;;11.40;88.50;;;;;;4882936;29;20127;-83
2023/04/19 19:14:42;;;;;;;5.40;2.60;;;10.60;92.00;;;;;;4955405;28;20130;-86
2023/04/19 19:25:49;;;;;;;3.65;2.75;;;10.60;92.70;;;;;;4900574;29;20080;-85
2023/04/19 19:44:24;;;;;;;8.93;3.33;;;10.30;93.70;;;;;;4811637;29;20134;-84
2023/04/19 19:46:53;;;;;;;7.80;3.25;;;10.30;93.80;;;;;;4839961;29;20052;-88